createdAt,value
2023-05-14T00:00:09.138Z,30.84
2023-05-14T00:01:09.135Z,30.82
2023-05-14T00:02:09.146Z,30.83
2023-05-14T00:03:09.290Z,30.86
2023-05-14T00:04:09.168Z,30.81
2023-05-14T00:05:09.140Z,30.82
2023-05-14T00:06:09.154Z,30.83
2023-05-14T00:07:09.174Z,30.84
2023-05-14T00:08:09.149Z,30.84
2023-05-14T00:09:09.185Z,30.82
2023-05-14T00:10:09.156Z,30.83
2023-05-14T00:11:09.207Z,30.85
2023-05-14T00:12:09.168Z,30.82
2023-05-14T00:13:09.188Z,30.90
2023-05-14T00:14:09.187Z,30.78
2023-05-14T00:15:09.165Z,30.81
2023-05-14T00:16:09.244Z,30.84
2023-05-14T00:17:09.217Z,30.84
2023-05-14T00:18:09.277Z,30.81
2023-05-14T00:19:09.432Z,30.81
2023-05-14T00:20:09.250Z,30.83
2023-05-14T00:21:09.249Z,30.87
2023-05-14T00:22:09.259Z,30.77
2023-05-14T00:23:09.408Z,30.89
2023-05-14T00:24:09.253Z,30.89
2023-05-14T00:25:09.320Z,30.87
2023-05-14T00:26:09.272Z,30.83
2023-05-14T00:27:09.292Z,30.89
2023-05-14T00:28:09.282Z,30.87
2023-05-14T00:29:09.291Z,30.84
2023-05-14T00:30:09.269Z,30.84
2023-05-14T00:31:09.336Z,30.80
2023-05-14T00:32:09.331Z,30.81
2023-05-14T00:33:09.317Z,30.87
2023-05-14T00:34:09.259Z,30.81
2023-05-14T00:35:09.336Z,30.81
2023-05-14T00:36:09.303Z,30.83
2023-05-14T00:37:09.281Z,30.91
2023-05-14T00:38:09.357Z,30.84
2023-05-14T00:39:09.314Z,30.87
2023-05-14T00:40:09.362Z,30.82
2023-05-14T00:41:09.328Z,30.87
2023-05-14T00:42:09.303Z,30.85
2023-05-14T00:43:09.323Z,30.87
2023-05-14T00:44:09.337Z,30.82
2023-05-14T00:45:09.351Z,30.89
2023-05-14T00:46:09.366Z,30.85
2023-05-14T00:47:09.420Z,30.79
2023-05-14T00:48:09.443Z,30.87
2023-05-14T00:49:09.353Z,30.84
2023-05-14T00:50:09.364Z,30.85
2023-05-14T00:51:09.357Z,30.85
2023-05-14T00:52:09.384Z,30.84
2023-05-14T00:53:09.402Z,30.81
2023-05-14T00:54:09.413Z,30.82
2023-05-14T00:55:09.398Z,30.87
2023-05-14T00:56:09.422Z,30.86
2023-05-14T00:57:09.425Z,30.88
2023-05-14T00:58:09.418Z,30.88
2023-05-14T00:59:09.425Z,30.86
2023-05-14T01:00:09.437Z,30.87
2023-05-14T01:01:09.499Z,30.88
2023-05-14T01:02:09.456Z,30.84
2023-05-14T01:03:09.551Z,30.81
2023-05-14T01:04:09.431Z,30.88
2023-05-14T01:05:09.424Z,30.85
2023-05-14T01:06:09.429Z,30.85
2023-05-14T01:07:09.440Z,30.89
2023-05-14T01:08:09.458Z,30.89
2023-05-14T01:09:09.453Z,30.92
2023-05-14T01:10:09.446Z,30.85
2023-05-14T01:11:09.480Z,30.89
2023-05-14T01:12:09.482Z,30.88
2023-05-14T01:13:09.502Z,30.88
2023-05-14T01:14:09.453Z,30.85
2023-05-14T01:15:09.467Z,30.86
2023-05-14T01:16:09.529Z,30.83
2023-05-14T01:17:09.510Z,30.94
2023-05-14T01:18:09.627Z,30.91
2023-05-14T01:19:09.688Z,30.86
2023-05-14T01:20:09.506Z,30.90
2023-05-14T01:21:09.471Z,30.92
2023-05-14T01:22:09.539Z,30.86
2023-05-14T01:23:09.505Z,30.91
2023-05-14T01:24:09.555Z,30.91
2023-05-14T01:25:09.517Z,30.90
2023-05-14T01:26:09.578Z,30.93
2023-05-14T01:27:09.593Z,30.83
2023-05-14T01:28:09.587Z,30.89
2023-05-14T01:29:09.596Z,30.89
2023-05-14T01:30:09.573Z,30.91
2023-05-14T01:31:09.598Z,30.89
2023-05-14T01:32:09.758Z,30.85
2023-05-14T01:33:09.645Z,30.86
2023-05-14T01:34:09.651Z,30.85
2023-05-14T01:35:09.696Z,30.92
2023-05-14T01:36:09.678Z,30.90
2023-05-14T01:37:09.688Z,30.89
2023-05-14T01:38:09.727Z,30.86
2023-05-14T01:39:09.732Z,30.89
2023-05-14T01:40:09.724Z,30.91
2023-05-14T01:41:09.712Z,30.90
2023-05-14T01:42:09.777Z,30.90
2023-05-14T01:43:09.805Z,30.93
2023-05-14T01:44:09.767Z,30.91
2023-05-14T01:45:09.807Z,30.89
2023-05-14T01:46:09.915Z,30.92
2023-05-14T01:47:09.820Z,30.90
2023-05-14T01:48:09.874Z,30.92
2023-05-14T01:49:09.848Z,30.96
2023-05-14T01:50:09.872Z,30.90
2023-05-14T01:51:09.878Z,30.97
2023-05-14T01:52:09.880Z,30.91
2023-05-14T01:53:09.932Z,30.90
2023-05-14T01:54:09.889Z,30.90
2023-05-14T01:55:09.941Z,30.93
2023-05-14T01:56:09.977Z,30.93
2023-05-14T01:57:10.071Z,30.90
2023-05-14T01:58:09.996Z,30.89
2023-05-14T01:59:10.009Z,30.91
2023-05-14T02:00:10.045Z,30.88
2023-05-14T02:01:10.093Z,30.93
2023-05-14T02:02:10.078Z,30.93
2023-05-14T02:03:10.122Z,30.86
2023-05-14T02:04:10.118Z,30.87
2023-05-14T02:05:10.148Z,30.89
2023-05-14T02:06:10.150Z,30.89
2023-05-14T02:07:10.136Z,30.93
2023-05-14T02:08:10.158Z,30.91
2023-05-14T02:09:10.173Z,30.94
2023-05-14T02:10:10.210Z,30.90
2023-05-14T02:11:10.223Z,30.91
2023-05-14T02:12:10.234Z,30.91
2023-05-14T02:13:10.317Z,30.93
2023-05-14T02:14:10.274Z,30.87
2023-05-14T02:15:10.318Z,30.86
2023-05-14T02:16:10.373Z,30.93
2023-05-14T02:17:10.312Z,30.84
2023-05-14T02:18:10.420Z,30.89
2023-05-14T02:19:10.502Z,30.90
2023-05-14T02:20:10.540Z,30.85
2023-05-14T02:21:10.417Z,30.93
2023-05-14T02:22:10.452Z,30.91
2023-05-14T02:23:10.474Z,30.85
2023-05-14T02:24:10.524Z,30.91
2023-05-14T02:25:10.514Z,30.88
2023-05-14T02:26:10.540Z,30.94
2023-05-14T02:27:10.518Z,30.95
2023-05-14T02:28:10.590Z,30.95
2023-05-14T02:29:10.582Z,30.91
2023-05-14T02:30:10.645Z,30.91
2023-05-14T02:31:10.611Z,30.88
2023-05-14T02:32:10.668Z,30.94
2023-05-14T02:33:10.700Z,30.92
2023-05-14T02:34:10.701Z,30.88
2023-05-14T02:35:10.722Z,30.95
2023-05-14T02:36:10.728Z,30.91
2023-05-14T02:37:10.764Z,30.90
2023-05-14T02:38:10.788Z,30.94
2023-05-14T02:39:10.746Z,30.90
2023-05-14T02:40:10.798Z,30.91
2023-05-14T02:41:10.796Z,30.93
2023-05-14T02:42:10.836Z,30.87
2023-05-14T02:43:10.840Z,30.94
2023-05-14T02:44:10.882Z,30.88
2023-05-14T02:45:10.939Z,30.91
2023-05-14T02:46:10.947Z,30.88
2023-05-14T02:47:11.053Z,30.90
2023-05-14T02:48:11.030Z,30.95
2023-05-14T02:49:10.994Z,30.90
2023-05-14T02:50:10.996Z,30.94
2023-05-14T02:51:11.049Z,30.88
2023-05-14T02:52:11.041Z,30.92
2023-05-14T02:53:11.104Z,30.92
2023-05-14T02:54:11.102Z,30.95
2023-05-14T02:55:11.125Z,30.91
2023-05-14T02:56:11.166Z,30.94
2023-05-14T02:57:11.186Z,30.92
2023-05-14T02:58:11.185Z,30.96
2023-05-14T02:59:11.198Z,30.95
2023-05-14T03:00:11.224Z,30.95
2023-05-14T03:01:11.268Z,30.96
2023-05-14T03:02:11.327Z,30.96
2023-05-14T03:03:11.354Z,30.93
2023-05-14T03:04:11.340Z,30.91
2023-05-14T03:05:11.340Z,30.91
2023-05-14T03:06:11.369Z,30.98
2023-05-14T03:07:11.373Z,31.00
2023-05-14T03:08:11.416Z,30.98
2023-05-14T03:09:11.471Z,30.96
2023-05-14T03:10:11.438Z,30.96
2023-05-14T03:11:11.492Z,30.93
2023-05-14T03:12:11.526Z,30.98
2023-05-14T03:13:11.553Z,30.98
2023-05-14T03:14:11.578Z,30.96
2023-05-14T03:15:11.657Z,30.98
2023-05-14T03:16:11.681Z,30.95
2023-05-14T03:17:11.820Z,30.95
2023-05-14T03:18:11.673Z,30.97
2023-05-14T03:19:11.867Z,30.99
2023-05-14T03:20:11.688Z,30.93
2023-05-14T03:21:11.714Z,30.96
2023-05-14T03:22:11.777Z,30.98
2023-05-14T03:23:11.810Z,30.94
2023-05-14T03:24:11.805Z,30.85
2023-05-14T03:25:11.862Z,30.98
2023-05-14T03:26:11.887Z,30.97
2023-05-14T03:27:11.948Z,30.92
2023-05-14T03:28:11.947Z,30.95
2023-05-14T03:29:11.926Z,30.95
2023-05-14T03:30:11.998Z,30.95
2023-05-14T03:31:12.070Z,30.99
2023-05-14T03:32:12.021Z,30.97
2023-05-14T03:33:12.061Z,31.00
2023-05-14T03:34:12.090Z,30.95
2023-05-14T03:35:12.148Z,30.90
2023-05-14T03:36:12.164Z,30.95
2023-05-14T03:37:12.166Z,30.95
2023-05-14T03:38:12.192Z,30.92
2023-05-14T03:39:12.209Z,30.95
2023-05-14T03:40:12.264Z,30.94
2023-05-14T03:41:12.297Z,30.95
2023-05-14T03:42:12.354Z,30.97
2023-05-14T03:43:12.360Z,30.90
2023-05-14T03:44:12.342Z,30.95
2023-05-14T03:45:12.405Z,30.95
2023-05-14T03:46:12.420Z,30.93
2023-05-14T03:47:12.439Z,30.92
2023-05-14T03:48:12.545Z,30.97
2023-05-14T03:49:12.576Z,30.90
2023-05-14T03:50:12.548Z,30.88
2023-05-14T03:51:12.595Z,30.95
2023-05-14T03:52:12.610Z,30.93
2023-05-14T03:53:12.603Z,30.93
2023-05-14T03:54:12.644Z,30.93
2023-05-14T03:55:12.642Z,30.93
2023-05-14T03:56:12.706Z,30.88
2023-05-14T03:57:12.736Z,30.99
2023-05-14T03:58:12.782Z,30.89
2023-05-14T03:59:12.794Z,30.92
2023-05-14T04:00:12.828Z,30.86
2023-05-14T04:01:12.903Z,30.97
2023-05-14T04:02:12.936Z,30.90
2023-05-14T04:03:13.001Z,30.92
2023-05-14T04:04:12.968Z,30.95
2023-05-14T04:05:12.989Z,30.99
2023-05-14T04:06:13.009Z,30.96
2023-05-14T04:07:13.054Z,30.96
2023-05-14T04:08:13.098Z,30.93
2023-05-14T04:09:13.093Z,30.90
2023-05-14T04:10:13.170Z,30.95
2023-05-14T04:11:13.180Z,30.96
2023-05-14T04:12:13.183Z,30.89
2023-05-14T04:13:13.229Z,30.92
2023-05-14T04:14:13.264Z,30.99
2023-05-14T04:15:13.276Z,30.93
2023-05-14T04:16:13.380Z,30.92
2023-05-14T04:17:13.355Z,30.96
2023-05-14T04:18:13.414Z,30.95
2023-05-14T04:19:13.521Z,30.94
2023-05-14T04:20:13.403Z,30.96
2023-05-14T04:21:13.478Z,30.99
2023-05-14T04:22:13.498Z,30.93
2023-05-14T04:23:13.536Z,30.95
2023-05-14T04:24:13.587Z,30.93
2023-05-14T04:25:13.582Z,30.95
2023-05-14T04:26:13.633Z,30.93
2023-05-14T04:27:13.650Z,30.93
2023-05-14T04:28:13.693Z,30.99
2023-05-14T04:29:13.747Z,30.96
2023-05-14T04:30:13.803Z,30.95
2023-05-14T04:31:13.808Z,30.93
2023-05-14T04:32:13.833Z,30.96
2023-05-14T04:33:13.839Z,31.00
2023-05-14T04:34:13.873Z,30.87
2023-05-14T04:35:13.882Z,30.96
2023-05-14T04:36:13.922Z,30.93
2023-05-14T04:37:13.987Z,30.93
2023-05-14T04:38:13.983Z,30.95
2023-05-14T04:39:14.007Z,30.92
2023-05-14T04:40:14.043Z,30.92
2023-05-14T04:41:14.050Z,30.95
2023-05-14T04:42:14.097Z,30.97
2023-05-14T04:43:14.102Z,30.96
2023-05-14T04:44:14.145Z,30.93
2023-05-14T04:45:14.181Z,30.91
2023-05-14T04:46:14.281Z,30.92
2023-05-14T04:47:14.219Z,30.92
2023-05-14T04:48:14.270Z,30.91
2023-05-14T04:49:14.242Z,30.89
2023-05-14T04:50:14.387Z,30.89
2023-05-14T04:51:14.269Z,30.92
2023-05-14T04:52:14.327Z,30.92
2023-05-14T04:53:14.372Z,30.93
2023-05-14T04:54:14.380Z,30.90
2023-05-14T04:55:14.407Z,30.94
2023-05-14T04:56:14.398Z,30.91
2023-05-14T04:57:14.412Z,30.94
2023-05-14T04:58:14.453Z,30.96
2023-05-14T04:59:14.468Z,30.96
2023-05-14T05:00:14.501Z,30.97
2023-05-14T05:01:14.568Z,30.93
2023-05-14T05:02:14.544Z,30.89
2023-05-14T05:03:14.719Z,30.99
2023-05-14T05:04:14.621Z,30.93
2023-05-14T05:05:14.627Z,30.94
2023-05-14T05:06:14.624Z,30.97
2023-05-14T05:07:14.663Z,30.91
2023-05-14T05:08:14.691Z,30.94
2023-05-14T05:09:14.700Z,30.93
2023-05-14T05:10:14.768Z,30.94
2023-05-14T05:11:14.750Z,30.96
2023-05-14T05:12:14.779Z,30.96
2023-05-14T05:13:14.783Z,30.94
2023-05-14T05:14:14.815Z,30.90
2023-05-14T05:15:14.877Z,30.93
2023-05-14T05:16:14.962Z,30.94
2023-05-14T05:17:14.918Z,30.94
2023-05-14T05:18:14.933Z,30.94
2023-05-14T05:19:15.048Z,30.96
2023-05-14T05:20:14.951Z,30.93
2023-05-14T05:21:14.981Z,30.94
2023-05-14T05:22:15.009Z,30.97
2023-05-14T05:23:15.139Z,30.96
2023-05-14T05:24:15.080Z,30.94
2023-05-14T05:25:15.154Z,30.94
2023-05-14T05:26:15.155Z,30.94
2023-05-14T05:27:15.152Z,30.99
2023-05-14T05:28:15.190Z,30.97
2023-05-14T05:29:15.175Z,30.99
2023-05-14T05:30:15.266Z,30.97
2023-05-14T05:31:16.576Z,30.97
2023-05-14T05:32:15.282Z,30.96
2023-05-14T05:33:15.325Z,30.99
2023-05-14T05:34:15.302Z,31.02
2023-05-14T05:35:15.354Z,30.96
2023-05-14T05:36:15.358Z,30.97
2023-05-14T05:37:15.433Z,31.00
2023-05-14T05:38:15.473Z,30.99
2023-05-14T05:39:15.486Z,30.97
2023-05-14T05:40:15.479Z,31.00
2023-05-14T05:41:15.474Z,30.94
2023-05-14T05:42:15.565Z,31.01
2023-05-14T05:43:15.540Z,30.99
2023-05-14T05:44:15.605Z,30.94
2023-05-14T05:45:15.609Z,31.02
2023-05-14T05:46:15.659Z,30.94
2023-05-14T05:47:15.646Z,30.99
2023-05-14T05:48:15.684Z,31.00
2023-05-14T05:49:15.709Z,30.99
2023-05-14T05:50:15.696Z,30.96
2023-05-14T05:51:15.733Z,30.97
2023-05-14T05:52:15.767Z,30.96
2023-05-14T05:53:15.786Z,30.94
2023-05-14T05:54:15.805Z,30.96
2023-05-14T05:55:15.859Z,30.90
2023-05-14T05:56:15.821Z,30.95
2023-05-14T05:57:15.865Z,30.95
2023-05-14T05:58:15.916Z,30.92
2023-05-14T05:59:15.921Z,30.95
2023-05-14T06:00:15.919Z,30.97
2023-05-14T06:01:15.986Z,30.92
2023-05-14T06:02:16.051Z,30.92
2023-05-14T06:03:16.040Z,30.89
2023-05-14T06:04:16.056Z,30.93
2023-05-14T06:05:16.129Z,30.91
2023-05-14T06:06:16.080Z,30.94
2023-05-14T06:07:16.061Z,30.91
2023-05-14T06:08:16.159Z,30.88
2023-05-14T06:09:16.132Z,30.88
2023-05-14T06:10:16.163Z,30.95
2023-05-14T06:11:16.175Z,30.93
2023-05-14T06:12:16.192Z,30.89
2023-05-14T06:13:16.285Z,30.96
2023-05-14T06:14:16.234Z,30.92
2023-05-14T06:15:16.234Z,30.93
2023-05-14T06:16:16.299Z,30.92
2023-05-14T06:17:16.279Z,30.96
2023-05-14T06:18:16.274Z,30.90
2023-05-14T06:19:16.426Z,30.95
2023-05-14T06:20:16.325Z,30.86
2023-05-14T06:21:16.384Z,30.93
2023-05-14T06:22:16.405Z,30.92
2023-05-14T06:23:16.387Z,30.91
2023-05-14T06:24:16.445Z,30.89
2023-05-14T06:25:16.435Z,30.88
2023-05-14T06:26:16.437Z,30.91
2023-05-14T06:27:16.487Z,30.92
2023-05-14T06:28:16.492Z,30.89
2023-05-14T06:29:16.490Z,30.88
2023-05-14T06:30:16.514Z,30.93
2023-05-14T06:31:16.534Z,30.89
2023-05-14T06:32:16.580Z,30.85
2023-05-14T06:33:17.011Z,30.95
2023-05-14T06:34:16.561Z,30.93
2023-05-14T06:35:16.590Z,30.98
2023-05-14T06:36:16.607Z,30.85
2023-05-14T06:37:16.613Z,30.91
2023-05-14T06:38:16.662Z,30.91
2023-05-14T06:39:16.644Z,30.86
2023-05-14T06:40:16.635Z,30.91
2023-05-14T06:41:16.682Z,30.91
2023-05-14T06:42:16.687Z,30.89
2023-05-14T06:43:16.701Z,30.88
2023-05-14T06:44:16.706Z,30.87
2023-05-14T06:45:16.734Z,30.91
2023-05-14T06:46:16.734Z,30.90
2023-05-14T06:47:16.761Z,30.87
2023-05-14T06:48:16.825Z,30.87
2023-05-14T06:49:16.868Z,30.87
2023-05-14T06:50:16.795Z,30.84
2023-05-14T06:51:16.813Z,30.81
2023-05-14T06:52:16.825Z,30.80
2023-05-14T06:53:16.874Z,30.80
2023-05-14T06:54:16.835Z,30.80
2023-05-14T06:55:16.870Z,30.80
2023-05-14T06:56:16.912Z,30.77
2023-05-14T06:57:16.884Z,30.80
2023-05-14T06:58:16.967Z,30.76
2023-05-14T06:59:16.950Z,30.77
2023-05-14T07:00:16.977Z,30.79
2023-05-14T07:01:17.118Z,30.77
2023-05-14T07:02:16.965Z,30.74
2023-05-14T07:03:16.999Z,30.76
2023-05-14T07:04:17.033Z,30.78
2023-05-14T07:05:17.006Z,30.76
2023-05-14T07:06:17.021Z,30.76
2023-05-14T07:07:17.021Z,30.76
2023-05-14T07:08:17.071Z,30.76
2023-05-14T07:09:17.044Z,30.76
2023-05-14T07:10:17.023Z,30.78
2023-05-14T07:11:17.051Z,30.73
2023-05-14T07:12:17.044Z,30.74
2023-05-14T07:13:17.244Z,30.69
2023-05-14T07:14:17.111Z,30.71
2023-05-14T07:15:17.141Z,30.67
2023-05-14T07:16:17.093Z,30.72
2023-05-14T07:17:17.225Z,30.69
2023-05-14T07:18:17.188Z,30.65
2023-05-14T07:19:17.279Z,30.66
2023-05-14T07:20:17.227Z,30.65
2023-05-14T07:21:17.156Z,30.60
2023-05-14T07:22:17.166Z,30.63
2023-05-14T07:23:19.203Z,30.62
2023-05-14T07:24:17.182Z,30.62
2023-05-14T07:25:17.198Z,30.63
2023-05-14T07:26:17.150Z,30.61
2023-05-14T07:27:17.180Z,30.61
2023-05-14T07:28:17.166Z,30.64
2023-05-14T07:29:17.124Z,30.58
2023-05-14T07:30:17.143Z,30.60
2023-05-14T07:31:17.163Z,30.57
2023-05-14T07:32:17.132Z,30.51
2023-05-14T07:33:17.127Z,30.57
2023-05-14T07:34:17.113Z,30.57
2023-05-14T07:35:17.103Z,30.53
2023-05-14T07:36:17.103Z,30.53
2023-05-14T07:37:17.086Z,30.56
2023-05-14T07:38:17.088Z,30.46
2023-05-14T07:39:17.065Z,30.49
2023-05-14T07:40:17.072Z,30.49
2023-05-14T07:41:17.079Z,30.48
2023-05-14T07:42:27.958Z,30.48
2023-05-14T07:43:18.041Z,30.50
2023-05-14T07:44:17.068Z,30.37
2023-05-14T07:45:17.027Z,30.41
2023-05-14T07:46:17.061Z,30.36
2023-05-14T07:47:17.150Z,30.36
2023-05-14T07:48:17.032Z,30.37
2023-05-14T07:49:17.034Z,30.30
2023-05-14T07:50:17.001Z,30.30
2023-05-14T07:51:17.062Z,30.32
2023-05-14T07:52:16.971Z,30.26
2023-05-14T07:53:16.979Z,30.22
2023-05-14T07:54:17.013Z,30.26
2023-05-14T07:55:16.974Z,30.26
2023-05-14T07:56:17.010Z,30.24
2023-05-14T07:57:16.945Z,30.24
2023-05-14T07:58:16.947Z,30.22
2023-05-14T07:59:16.912Z,30.19
2023-05-14T08:00:16.950Z,30.18
2023-05-14T08:01:16.897Z,30.20
2023-05-14T08:02:17.290Z,30.20
2023-05-14T08:03:16.976Z,30.21
2023-05-14T08:04:17.046Z,30.18
2023-05-14T08:05:16.907Z,30.16
2023-05-14T08:06:16.893Z,30.17
2023-05-14T08:07:16.910Z,30.16
2023-05-14T08:08:16.877Z,30.13
2023-05-14T08:09:16.902Z,30.10
2023-05-14T08:10:16.921Z,30.09
2023-05-14T08:11:17.051Z,30.15
2023-05-14T08:12:17.066Z,30.10
2023-05-14T08:13:17.049Z,30.09
2023-05-14T08:14:17.129Z,30.06
2023-05-14T08:15:17.137Z,30.06
2023-05-14T08:16:17.205Z,30.05
2023-05-14T08:17:17.285Z,30.08
2023-05-14T08:18:17.257Z,30.01
2023-05-14T08:19:17.376Z,30.05
2023-05-14T08:20:17.334Z,30.07
2023-05-14T08:21:17.421Z,30.04
2023-05-14T08:22:17.448Z,30.05
2023-05-14T08:23:17.501Z,30.07
2023-05-14T08:24:17.569Z,29.99
2023-05-14T08:25:17.677Z,30.04
2023-05-14T08:26:17.668Z,29.98
2023-05-14T08:27:17.797Z,30.01
2023-05-14T08:28:17.839Z,30.01
2023-05-14T08:29:17.863Z,29.93
2023-05-14T08:30:17.890Z,30.00
2023-05-14T08:31:18.023Z,29.99
2023-05-14T08:32:23.201Z,29.96
2023-05-14T08:33:19.036Z,29.99
2023-05-14T08:34:18.012Z,29.93
2023-05-14T08:35:18.012Z,29.95
2023-05-14T08:36:18.004Z,29.90
2023-05-14T08:37:18.005Z,29.92
2023-05-14T08:38:17.978Z,29.89
2023-05-14T08:39:17.984Z,29.88
2023-05-14T08:40:17.991Z,29.82
2023-05-14T08:41:18.034Z,29.82
2023-05-14T08:42:18.096Z,29.80
2023-05-14T08:43:18.154Z,29.80
2023-05-14T08:44:18.188Z,29.76
2023-05-14T08:45:18.247Z,29.77
2023-05-14T08:46:18.275Z,29.75
2023-05-14T08:47:18.347Z,29.75
2023-05-14T08:48:18.423Z,29.69
2023-05-14T08:49:18.458Z,29.69
2023-05-14T08:50:19.924Z,29.65
2023-05-14T08:51:18.479Z,29.65
2023-05-14T08:52:18.497Z,29.66
2023-05-14T08:53:18.484Z,29.61
2023-05-14T08:54:18.480Z,29.61
2023-05-14T08:55:18.518Z,29.60
2023-05-14T08:56:18.436Z,29.61
2023-05-14T08:57:18.453Z,29.60
2023-05-14T08:58:18.454Z,29.57
2023-05-14T08:59:18.439Z,29.56
2023-05-14T09:00:18.430Z,29.52
2023-05-14T09:01:18.553Z,29.52
2023-05-14T09:02:18.429Z,29.53
2023-05-14T09:03:18.443Z,29.56
2023-05-14T09:04:18.434Z,29.52
2023-05-14T09:05:18.415Z,29.54
2023-05-14T09:06:18.423Z,29.51
2023-05-14T09:07:18.439Z,29.52
2023-05-14T09:08:18.342Z,29.56
2023-05-14T09:09:18.395Z,29.55
2023-05-14T09:10:18.362Z,29.59
2023-05-14T09:11:18.335Z,29.53
2023-05-14T09:12:18.388Z,29.53
2023-05-14T09:13:18.362Z,29.59
2023-05-14T09:14:18.349Z,29.56
2023-05-14T09:15:18.318Z,29.58
2023-05-14T09:16:18.385Z,29.59
2023-05-14T09:17:18.345Z,29.59
2023-05-14T09:18:18.334Z,29.58
2023-05-14T09:19:18.350Z,29.58
2023-05-14T09:20:18.291Z,29.62
2023-05-14T09:21:18.323Z,29.55
2023-05-14T09:22:18.267Z,29.54
2023-05-14T09:23:18.261Z,29.54
2023-05-14T09:24:18.282Z,29.54
2023-05-14T09:25:18.251Z,29.55
2023-05-14T09:26:18.292Z,29.55
2023-05-14T09:27:18.342Z,29.59
2023-05-14T09:28:18.380Z,29.57
2023-05-14T09:29:18.503Z,29.55
2023-05-14T09:30:18.498Z,29.53
2023-05-14T09:31:18.650Z,29.54
2023-05-14T09:32:18.581Z,29.54
2023-05-14T09:33:18.626Z,29.50
2023-05-14T09:34:18.664Z,29.47
2023-05-14T09:35:18.722Z,29.49
2023-05-14T09:36:18.751Z,29.49
2023-05-14T09:37:18.828Z,29.50
2023-05-14T09:38:18.868Z,29.47
2023-05-14T09:39:18.922Z,29.45
2023-05-14T09:40:18.949Z,29.49
2023-05-14T09:41:18.975Z,29.42
2023-05-14T09:42:19.010Z,29.38
2023-05-14T09:43:19.082Z,29.40
2023-05-14T09:44:19.133Z,29.38
2023-05-14T09:45:19.150Z,29.41
2023-05-14T09:46:19.204Z,29.43
2023-05-14T09:47:19.255Z,29.41
2023-05-14T09:48:19.278Z,29.34
2023-05-14T09:49:19.315Z,29.39
2023-05-14T09:50:19.321Z,29.40
2023-05-14T09:51:19.733Z,29.37
2023-05-14T09:52:19.416Z,29.34
2023-05-14T09:53:19.410Z,29.38
2023-05-14T09:54:19.473Z,29.40
2023-05-14T09:55:19.508Z,29.38
2023-05-14T09:56:19.520Z,29.41
2023-05-14T09:57:19.577Z,29.40
2023-05-14T09:58:19.615Z,29.38
2023-05-14T09:59:19.785Z,29.40
2023-05-14T10:00:19.640Z,29.38
2023-05-14T10:01:19.765Z,29.38
2023-05-14T10:02:19.739Z,29.43
2023-05-14T10:03:20.176Z,29.41
2023-05-14T10:04:19.862Z,29.40
2023-05-14T10:05:19.881Z,29.40
2023-05-14T10:06:19.892Z,29.44
2023-05-14T10:07:19.951Z,29.43
2023-05-14T10:08:19.959Z,29.43
2023-05-14T10:09:19.969Z,29.40
2023-05-14T10:10:20.123Z,29.46
2023-05-14T10:11:20.022Z,29.44
2023-05-14T10:12:20.028Z,29.45
2023-05-14T10:13:20.081Z,29.46
2023-05-14T10:14:20.104Z,29.43
2023-05-14T10:15:20.172Z,29.48
2023-05-14T10:16:20.289Z,29.41
2023-05-14T10:17:20.256Z,29.44
2023-05-14T10:18:20.267Z,29.47
2023-05-14T10:19:20.367Z,29.48
2023-05-14T10:20:20.337Z,29.49
2023-05-14T10:21:20.301Z,29.44
2023-05-14T10:22:20.339Z,29.46
2023-05-14T10:23:20.378Z,29.47
2023-05-14T10:24:20.386Z,29.47
2023-05-14T10:25:20.427Z,29.43
2023-05-14T10:26:22.358Z,29.44
2023-05-14T10:27:20.456Z,29.51
2023-05-14T10:28:20.445Z,29.44
2023-05-14T10:29:20.423Z,29.43
2023-05-14T10:30:20.433Z,29.44
2023-05-14T10:31:20.430Z,29.46
2023-05-14T10:32:20.410Z,29.44
2023-05-14T10:33:20.378Z,29.44
2023-05-14T10:34:20.403Z,29.49
2023-05-14T10:35:20.444Z,29.43
2023-05-14T10:36:20.385Z,29.44
2023-05-14T10:37:20.384Z,29.47
2023-05-14T10:38:20.391Z,29.49
2023-05-14T10:39:20.355Z,29.42
2023-05-14T10:40:20.354Z,29.49
2023-05-14T10:41:20.352Z,29.40
2023-05-14T10:42:20.305Z,29.44
2023-05-14T10:43:20.315Z,29.50
2023-05-14T10:44:20.734Z,29.50
2023-05-14T10:45:20.330Z,29.55
2023-05-14T10:46:20.378Z,29.53
2023-05-14T10:47:20.308Z,29.53
2023-05-14T10:48:20.372Z,29.54
2023-05-14T10:49:28.914Z,29.59
2023-05-14T10:50:21.268Z,29.54
2023-05-14T10:51:20.286Z,29.56
2023-05-14T10:52:20.273Z,29.61
2023-05-14T10:53:20.262Z,29.56
2023-05-14T10:54:20.243Z,29.57
2023-05-14T10:55:20.271Z,29.54
2023-05-14T10:56:20.270Z,29.59
2023-05-14T10:57:20.248Z,29.63
2023-05-14T10:58:20.200Z,29.59
2023-05-14T10:59:20.211Z,29.56
2023-05-14T11:00:20.188Z,29.63
2023-05-14T11:01:20.234Z,29.60
2023-05-14T11:02:20.241Z,29.64
2023-05-14T11:03:20.211Z,29.60
2023-05-14T11:04:20.256Z,29.64
2023-05-14T11:05:20.147Z,29.61
2023-05-14T11:06:20.164Z,29.60
2023-05-14T11:07:20.144Z,29.53
2023-05-14T11:08:20.156Z,29.59
2023-05-14T11:09:20.149Z,29.59
2023-05-14T11:10:20.140Z,29.56
2023-05-14T11:11:20.146Z,29.59
2023-05-14T11:12:20.167Z,29.55
2023-05-14T11:13:20.174Z,29.53
2023-05-14T11:14:20.192Z,29.55
2023-05-14T11:15:20.202Z,29.54
2023-05-14T11:16:23.852Z,29.58
2023-05-14T11:17:20.253Z,29.51
2023-05-14T11:18:20.217Z,29.52
2023-05-14T11:19:20.218Z,29.57
2023-05-14T11:20:20.192Z,29.54
2023-05-14T11:21:20.233Z,29.44
2023-05-14T11:22:20.203Z,29.55
2023-05-14T11:23:20.170Z,29.47
2023-05-14T11:24:20.204Z,29.45
2023-05-14T11:25:20.238Z,29.45
2023-05-14T11:26:21.660Z,29.47
2023-05-14T11:27:20.137Z,29.44
2023-05-14T11:28:20.139Z,29.44
2023-05-14T11:29:20.142Z,29.47
2023-05-14T11:30:20.183Z,29.45
2023-05-14T11:31:20.118Z,29.42
2023-05-14T11:32:20.120Z,29.48
2023-05-14T11:33:20.161Z,29.47
2023-05-14T11:34:20.110Z,29.40
2023-05-14T11:35:20.091Z,29.42
2023-05-14T11:36:20.101Z,29.43
2023-05-14T11:37:20.073Z,29.46
2023-05-14T11:38:20.072Z,29.45
2023-05-14T11:39:20.050Z,29.39
2023-05-14T11:40:20.052Z,29.46
2023-05-14T11:41:20.019Z,29.36
2023-05-14T11:42:20.087Z,29.43
2023-05-14T11:43:20.073Z,29.48
2023-05-14T11:44:20.013Z,29.43
2023-05-14T11:45:20.023Z,29.42
2023-05-14T11:46:20.168Z,29.43
2023-05-14T11:47:20.006Z,29.46
2023-05-14T11:48:20.011Z,29.44
2023-05-14T11:49:19.983Z,29.49
2023-05-14T11:50:20.005Z,29.49
2023-05-14T11:51:19.991Z,29.49
2023-05-14T11:52:19.968Z,29.49
2023-05-14T11:53:19.951Z,29.52
2023-05-14T11:54:19.939Z,29.54
2023-05-14T11:55:19.948Z,29.56
2023-05-14T11:56:19.932Z,29.57
2023-05-14T11:57:19.956Z,29.57
2023-05-14T11:58:19.941Z,29.53
2023-05-14T11:59:19.893Z,29.57
2023-05-14T12:00:19.924Z,29.57
2023-05-14T12:01:19.883Z,29.58
2023-05-14T12:02:20.013Z,29.61
2023-05-14T12:03:20.114Z,29.64
2023-05-14T12:04:19.939Z,29.59
2023-05-14T12:05:19.881Z,29.68
2023-05-14T12:06:19.860Z,29.68
2023-05-14T12:07:19.984Z,29.66
2023-05-14T12:08:19.897Z,29.66
2023-05-14T12:09:19.828Z,29.70
2023-05-14T12:10:19.844Z,29.76
2023-05-14T12:11:19.849Z,29.75
2023-05-14T12:12:19.859Z,29.72
2023-05-14T12:13:19.870Z,29.77
2023-05-14T12:14:19.881Z,29.75
2023-05-14T12:15:19.901Z,29.77
2023-05-14T12:16:19.982Z,29.77
2023-05-14T12:17:19.911Z,29.86
2023-05-14T12:18:24.704Z,29.83
2023-05-14T12:19:20.986Z,29.81
2023-05-14T12:20:19.918Z,29.83
2023-05-14T12:21:19.914Z,29.84
2023-05-14T12:22:19.892Z,29.84
2023-05-14T12:23:19.937Z,29.81
2023-05-14T12:24:19.946Z,29.88
2023-05-14T12:25:19.904Z,29.87
2023-05-14T12:26:19.909Z,29.87
2023-05-14T12:27:19.878Z,29.93
2023-05-14T12:28:19.854Z,29.92
2023-05-14T12:29:19.865Z,29.90
2023-05-14T12:30:21.675Z,29.91
2023-05-14T12:31:20.933Z,29.92
2023-05-14T12:32:19.847Z,29.92
2023-05-14T12:33:19.820Z,29.94
2023-05-14T12:34:19.826Z,29.95
2023-05-14T12:35:19.811Z,29.98
2023-05-14T12:36:22.260Z,29.97
2023-05-14T12:37:20.022Z,29.92
2023-05-14T12:38:20.034Z,29.94
2023-05-14T12:39:20.041Z,29.88
2023-05-14T12:40:20.065Z,29.87
2023-05-14T12:41:20.086Z,29.97
2023-05-14T12:42:20.124Z,29.91
2023-05-14T12:43:20.111Z,29.95
2023-05-14T12:44:20.123Z,29.90
2023-05-14T12:45:20.184Z,29.91
2023-05-14T12:46:20.242Z,29.89
2023-05-14T12:47:20.275Z,29.90
2023-05-14T12:48:20.216Z,29.93
2023-05-14T12:49:20.199Z,29.88
2023-05-14T12:50:20.251Z,29.90
2023-05-14T12:51:20.246Z,29.88
2023-05-14T12:52:33.323Z,29.87